Denver International Airport
KDEN : now visible

Airfield :











YOU CAN JOIN US ON...

 
LOGIN :

Register | Disclaimer

   EN    FR    IT 

 









Legend :    VFR   Marginal VFR   IFR   Intensive IFR   Very Intensive IFR
Visi :
Ceiling :
>= 8 km
>= 3000ft
5 to 8 km
1000 to 3000 ft
1500m to 5 km
500 to 1000 ft
800 to 1500m
200 to 500 ft
< 800m
< 200 ft
Symbols :   Thunderstorms  Fog  Heavy snow  Heavy precipitations  Wind > 20 kt






- Airport Elevation : 5431 ft
- IATA code : DEN


KDEN - Denver International

CURRENT METAR :
  • 192353Z 04010KT 1/2SM R35L/P6000FT -SN BR VV003 00/M01 A3024 RMK AO2 SFC VIS 1 1/2 SLP248 P0004 60005 T00001011 10050 20000 53015

EXPIRED METARs :
  • 192315Z 02011KT 1/2SM R35L/3500VP6000FT -SN BR VV003 01/M01 A3024 RMK AO2 SFC VIS 3/4 P0002 T00061006
  • 192307Z 02012KT 2SM -SN BR OVC003 01/M01 A3023 RMK AO2 TWR VIS 2 1/2 P0000 T00061006
  • 192253Z 03013KT 2 1/2SM -SN BR BKN005 OVC010 01/M01 A3022 RMK AO2 SFC VIS 4 SNB24 SLP239 P0000 T00111006
  • 192227Z 03017KT 1/4SM R35L/P6000FT -SN BR OVC003 02/00 A3021 RMK AO2 SFC VIS 1 1/2 SNB24 P0000 T00170000
  • 192157Z 02015KT M1/4SM R35L/P6000FT BR OVC003 02/01 A3021 RMK AO2 SFC VIS 1 TWR IN CLOUDS T00220006
  • 192128Z 03012KT 10SM BKN011 OVC018 04/01 A3020 RMK AO2 T00390006
  • 192145Z 02016KT 10SM BKN008 OVC015 03/01 A3020 RMK AO2 T00280006
  • 192100Z 03010KT 10SM BKN021 OVC027 04/01 A3019 RMK AO2 T00440011
  • 192000Z 27007KT 9SM -RA BKN012 BKN026 OVC035 04/01 A3019 RMK AO2 P0000 T00440011

TAF KDEN
Valid from the 20 at 00:00 until the 21 at 06:00 UTC


192323Z 2000/2106 06008KT 1SM -SN OVC005
TEMPO 2000/2004 1/2SM SN BR OVC004
FM200400 06007KT 1SM -SN BR OVC005
FM201500 16009KT 4SM -SN OVC010
FM201800 33008KT 4SM BR VCSH OVC015
FM202300 35008KT 4SM BR OVC013
KZDV FIR / North America



MET'MAP, your aeronautical weather chart ! - Copyright ORBIFLY December 2007 - Disclaimer

ORBIFLY MET'MAP TEAM :

Programming & Development : Alexandra Zaïnal
Original concept : Baudouin d'Aumeries
Technical & hardware support : Manuel Goepfert
Assistance : Marc-Olivier Méhu




SOURCES & CREDITS :

   NOAA       Earth
Advisory